Aérodrome :
LOGIN :

S'inscrire | Disclaimer

   EN    FR    IT 

 










Légende :    VFR   VFR Marginal   IFR   IFR Intensif   IFR Très Intensif
Visi : 
Plafond : 
>= 8 km
>= 3000ft
5 à 8 km
1000 à 3000 ft
1500m à 5 km
500 à 1000 ft
800 à 1500m
200 à 500 ft
< 800m
< 200 ft
Symboles :   Orages  Brouillard  Fortes neiges  Fortes précipitations  Vent > 20 kt
SIGMETs :   Divers  Orages  Givrage  Turbulence  Onde Orograph.  Cendres Volcan.







- Altitude de l'aérodrome : 935 ft


EBFS - Florennes

DERNIER METAR :
  • 180625Z VRB02KT 9999 FEW060 BKN250 19/15 Q1016 BLU BLU

METARs EXPIRÉS :
  • 180555Z VRB02KT 9999 FEW060 BKN250 18/15 Q1016 BLU BLU
  • 180525Z VRB01KT 9999 FEW060 BKN250 17/14 Q1016 BLU BLU
  • 180455Z VRB02KT 9999 FEW060 BKN250 16/13 Q1016 BLU BLU
  • 180440Z VRB02KT 9999 FEW060 BKN250 16/13 Q1016 BLU BLU
  • 180425Z AUTO VRB02KT 9999 FEW055/// 16/13 Q1016 BLU
  • 180355Z AUTO VRB01KT 9999 SCT055/// BKN210/// 15/12 Q1016 BLU

TAF TAF EBFS
Valide du 18 à 07h jusqu'au 18 à 16h UTC


180541Z 1807/1816 09005KT 9999 BKN250
TEMPO 1807/1816 VRB02KT
BECMG 1811/1813 19005KT FEW040 SCT120 BKN200
Pas de NOTAMs connus pour ce terrain.



MET'MAP, la Météo Aéronautique d'un coup d'oeil ! - Copyright ORBIFLY Décembre 2007 - Disclaimer

ORBIFLY MET'MAP TEAM :

Programmation & Développement : Alexandra Zaïnal
Conception & Développement : Baudouin d'Aumeries
Co-Programmation & Développement : Marc-Olivier Méhu
Soutien technique & logistique : Manuel Goepfert

Contact : metmap@orbifly.com




SOURCES & CREDITS :

   NOAA